Time;durP1;ratioP1;P1;durP2;ratioP2;P2;SDS_P1;SDS_P2;PMS_P1;PMS_P2;Temp;Humidity;BMP_temperature;BMP_pressure;BME280_temperature;BME280_humidity;BME280_pressure;Samples;Min_cycle;Max_cycle;Signal;HPM_P1;HPM_P2
2023/07/13 00:00:08;;;;;;;;;26.00;26.00;;;;;23.25;69.39;100456.95;110203;1257;19347;-38
2023/07/13 00:02:56;;;;;;;;;24.00;23.00;;;;;23.25;69.08;100451.48;110195;1265;21794;-38
2023/07/13 00:05:24;;;;;;;;;28.00;26.00;;;;;23.24;69.13;100442.80;110217;1264;19107;-38
2023/07/13 00:07:51;;;;;;;;;26.00;25.00;;;;;23.23;69.09;100440.05;110084;1251;21966;-38
2023/07/13 00:10:19;;;;;;;;;26.00;26.00;;;;;23.22;69.05;100434.55;110202;1264;21987;-38
2023/07/13 00:12:46;;;;;;;;;24.00;23.00;;;;;23.23;69.01;100441.35;110279;1248;20155;-38
2023/07/13 00:15:14;;;;;;;;;27.00;25.67;;;;;23.22;69.01;100439.05;110195;1250;20669;-38
2023/07/13 00:17:41;;;;;;;;;28.00;24.00;;;;;23.21;68.99;100437.95;110207;1248;18565;-38
2023/07/13 00:20:09;;;;;;;;;28.00;26.00;;;;;23.19;69.08;100442.11;110193;1250;20211;-38
2023/07/13 00:22:36;;;;;;;;;28.00;26.00;;;;;23.20;68.86;100442.27;110192;1250;22235;-39
2023/07/13 00:25:04;;;;;;;;;24.00;24.00;;;;;23.18;68.83;100442.23;110183;1265;19934;-38
2023/07/13 00:27:31;;;;;;;;;27.00;27.00;;;;;23.19;68.93;100441.06;110190;1256;20076;-38
2023/07/13 00:29:59;;;;;;;;;26.00;23.00;;;;;23.19;68.86;100442.42;110225;1249;20759;-38
2023/07/13 00:32:26;;;;;;;;;28.00;26.50;;;;;23.17;68.82;100440.73;110197;1256;22859;-38
2023/07/13 00:34:53;;;;;;;;;27.00;26.50;;;;;23.16;69.00;100432.65;110137;1250;18726;-38
2023/07/13 00:37:21;;;;;;;;;31.33;29.67;;;;;23.17;68.80;100432.95;110235;1264;19423;-38
2023/07/13 00:39:48;;;;;;;;;31.00;27.00;;;;;23.16;68.84;100435.27;110268;1250;20032;-38
2023/07/13 00:42:16;;;;;;;;;29.00;28.00;;;;;23.15;68.94;100437.11;110207;1264;18700;-37
2023/07/13 00:44:43;;;;;;;;;30.00;27.00;;;;;23.15;68.79;100441.39;110190;1250;20806;-39
2023/07/13 00:47:11;;;;;;;;;30.00;24.00;;;;;23.14;68.83;100442.62;110178;1250;20029;-38
2023/07/13 00:49:38;;;;;;;;;26.50;26.00;;;;;23.13;68.81;100440.26;110200;1249;20254;-39
2023/07/13 00:52:05;;;;;;;;;31.00;27.50;;;;;23.12;68.79;100444.70;110178;1249;22503;-39
2023/07/13 00:54:33;;;;;;;;;28.00;27.00;;;;;23.13;68.48;100451.86;110196;1264;18597;-39
2023/07/13 00:57:00;;;;;;;;;31.50;26.50;;;;;23.12;68.56;100460.21;110198;1250;20311;-39
2023/07/13 00:59:28;;;;;;;;;22.00;22.00;;;;;23.12;68.44;100460.25;110165;1265;19332;-39
2023/07/13 01:01:55;;;;;;;;;28.00;26.00;;;;;23.12;68.37;100464.84;110188;1265;21030;-39
2023/07/13 01:04:22;;;;;;;;;25.00;23.67;;;;;23.09;68.53;100463.36;110191;1264;18749;-38
2023/07/13 01:06:50;;;;;;;;;27.00;26.50;;;;;23.07;68.35;100474.36;110166;1264;19348;-39
2023/07/13 01:09:17;;;;;;;;;34.00;30.00;;;;;22.79;68.57;100483.48;110192;1249;20011;-38
2023/07/13 01:11:46;;;;;;;;;35.50;31.00;;;;;22.38;69.71;100489.28;110225;1249;18750;-37
2023/07/13 01:14:13;;;;;;;;;29.00;28.00;;;;;22.29;70.40;100485.11;110243;1264;22068;-38
2023/07/13 01:16:40;;;;;;;;;31.00;28.00;;;;;22.27;70.46;100490.45;110255;1264;19045;-38
2023/07/13 01:19:08;;;;;;;;;28.50;27.50;;;;;22.20;70.75;100492.11;110199;1250;20163;-39
2023/07/13 01:21:36;;;;;;;;;31.00;27.50;;;;;22.15;70.93;100483.73;110175;1250;20749;-38
2023/07/13 01:24:03;;;;;;;;;29.33;28.67;;;;;22.09;70.92;100473.70;110201;1250;20062;-39
2023/07/13 01:26:31;;;;;;;;;30.00;27.00;;;;;22.07;70.87;100471.40;110209;1250;22187;-39
2023/07/13 01:28:58;;;;;;;;;32.50;29.00;;;;;22.00;70.77;100464.09;110184;1257;20622;-39
2023/07/13 01:31:26;;;;;;;;;27.00;22.50;;;;;22.07;70.76;100466.81;110172;1250;20033;-39
2023/07/13 01:33:53;;;;;;;;;31.00;28.00;;;;;22.05;70.39;100461.42;110145;1250;20535;-38
2023/07/13 01:36:21;;;;;;;;;32.00;28.50;;;;;22.01;70.52;100462.48;110205;1250;20923;-38
2023/07/13 01:38:49;;;;;;;;;31.00;29.00;;;;;22.06;70.40;100463.95;110191;1264;22331;-39
2023/07/13 01:41:16;;;;;;;;;29.00;28.00;;;;;22.04;70.31;100464.67;110207;1265;18772;-38
2023/07/13 01:43:44;;;;;;;;;35.00;30.00;;;;;21.99;70.34;100458.11;110225;1250;19370;-38
2023/07/13 01:46:11;;;;;;;;;29.50;27.50;;;;;21.91;70.34;100457.93;110154;1265;22454;-38
2023/07/13 01:48:38;;;;;;;;;31.50;27.00;;;;;21.94;70.31;100464.52;110225;1250;20387;-38
2023/07/13 01:51:06;;;;;;;;;28.50;28.00;;;;;21.87;70.36;100472.06;110179;1250;19354;-39
2023/07/13 01:53:33;;;;;;;;;31.50;28.50;;;;;21.86;70.15;100479.35;110201;1249;20054;-38
2023/07/13 01:56:01;;;;;;;;;29.33;28.00;;;;;21.84;70.07;100484.04;110164;1249;22096;-37
2023/07/13 01:58:28;;;;;;;;;30.50;28.50;;;;;21.80;70.31;100484.85;110184;1264;19572;-39
2023/07/13 02:00:56;;;;;;;;;32.50;28.00;;;;;21.75;70.46;100490.70;110203;1250;21277;-39
2023/07/13 02:03:23;;;;;;;;;35.00;29.00;;;;;21.74;70.58;100489.35;110193;1265;22472;-39
2023/07/13 02:05:51;;;;;;;;;29.00;28.00;;;;;21.77;70.19;100491.70;110210;1249;20735;-39
2023/07/13 02:08:18;;;;;;;;;27.00;26.00;;;;;21.73;70.03;100492.37;110195;1264;22677;-39
2023/07/13 02:10:46;;;;;;;;;35.00;29.00;;;;;21.70;70.06;100491.83;110198;1264;18758;-39
2023/07/13 02:13:13;;;;;;;;;30.50;29.00;;;;;21.74;69.82;100486.25;110213;1264;20646;-39
2023/07/13 02:15:41;;;;;;;;;29.00;28.00;;;;;21.72;69.65;100485.21;110182;1264;19978;-39
2023/07/13 02:18:09;;;;;;;;;29.50;28.00;;;;;21.71;69.81;100481.35;110248;1264;22043;-39
2023/07/13 02:20:36;;;;;;;;;30.50;28.50;;;;;21.68;69.62;100479.34;110195;1256;20721;-39
2023/07/13 02:23:04;;;;;;;;;34.50;29.00;;;;;21.63;69.97;100482.39;110117;1250;20490;-39
2023/07/13 02:25:31;;;;;;;;;30.50;28.00;;;;;21.63;70.01;100475.14;110222;1250;22028;-39
2023/07/13 02:27:59;;;;;;;;;28.00;26.00;;;;;21.60;70.07;100469.86;110205;1250;21056;-39
2023/07/13 02:30:26;;;;;;;;;31.00;29.00;;;;;21.62;69.90;100470.48;110186;1265;22314;-39
2023/07/13 02:32:53;;;;;;;;;33.50;28.00;;;;;21.65;69.82;100468.84;110155;1250;20166;-39
2023/07/13 02:35:21;;;;;;;;;35.00;35.00;;;;;21.65;69.89;100464.89;110207;1250;19345;-39
2023/07/13 02:37:48;;;;;;;;;34.50;31.50;;;;;21.63;69.93;100467.17;110203;1250;22008;-39
2023/07/13 02:40:16;;;;;;;;;36.00;32.00;;;;;21.61;69.92;100470.84;110189;1264;18772;-39
2023/07/13 02:42:43;;;;;;;;;40.50;35.50;;;;;21.60;69.88;100471.59;110192;1250;20859;-38
2023/07/13 02:45:12;;;;;;;;;38.00;37.00;;;;;21.61;69.92;100468.08;110256;1264;19960;-38
2023/07/13 02:47:40;;;;;;;;;37.33;33.33;;;;;21.63;69.97;100463.10;110197;1250;20101;-38
2023/07/13 02:50:07;;;;;;;;;32.00;30.00;;;;;21.63;69.87;100472.34;110192;1257;19806;-39
2023/07/13 02:52:35;;;;;;;;;37.00;31.00;;;;;21.59;69.93;100473.39;110225;1249;20066;-38
2023/07/13 02:55:02;;;;;;;;;30.33;28.33;;;;;21.54;69.86;100471.85;110252;1264;18737;-39
2023/07/13 02:57:31;;;;;;;;;35.00;31.00;;;;;21.54;70.17;100473.10;110204;1250;20854;-39
2023/07/13 02:59:59;;;;;;;;;32.00;31.00;;;;;21.62;70.06;100469.59;110188;1250;20051;-39
2023/07/13 03:02:27;;;;;;;;;30.00;30.00;;;;;21.58;69.81;100464.29;110184;1250;20208;-39
2023/07/13 03:04:55;;;;;;;;;34.50;32.00;;;;;21.56;69.90;100460.48;110162;1265;22227;-39
2023/07/13 03:07:22;;;;;;;;;35.00;31.50;;;;;21.55;69.95;100453.98;110186;1250;20808;-39
2023/07/13 03:09:50;;;;;;;;;34.00;29.00;;;;;21.54;69.98;100452.38;110204;1249;19935;-39
2023/07/13 03:12:17;;;;;;;;;33.00;29.00;;;;;21.52;69.99;100460.20;110228;1250;21995;-38
2023/07/13 03:14:45;;;;;;;;;35.00;32.00;;;;;21.53;70.19;100463.98;110237;1248;19957;-39
2023/07/13 03:17:12;;;;;;;;;36.00;32.00;;;;;21.48;70.15;100462.88;110221;1249;23807;-39
2023/07/13 03:19:39;;;;;;;;;29.00;27.50;;;;;21.49;70.30;100462.04;110249;1250;20749;-39
2023/07/13 03:22:07;;;;;;;;;34.00;31.50;;;;;21.53;70.30;100459.55;110248;1250;20068;-39
2023/07/13 03:24:34;;;;;;;;;29.00;28.00;;;;;21.49;70.53;100459.52;110144;1264;18701;-39
2023/07/13 03:27:02;;;;;;;;;34.50;31.50;;;;;21.52;70.16;100461.78;110238;1249;20705;-39
2023/07/13 03:29:29;;;;;;;;;35.33;32.33;;;;;21.50;70.32;100462.34;110250;1264;22283;-39
2023/07/13 03:31:56;;;;;;;;;38.00;36.00;;;;;21.48;70.53;100460.40;110171;1264;18728;-39
2023/07/13 03:34:24;;;;;;;;;36.50;34.50;;;;;21.46;70.38;100467.56;110232;1264;19687;-39
2023/07/13 03:36:51;;;;;;;;;33.50;31.00;;;;;21.45;70.43;100468.92;110193;1249;20076;-39
2023/07/13 03:39:19;;;;;;;;;40.00;39.00;;;;;21.45;70.62;100476.02;110203;1250;20140;-39
2023/07/13 03:41:46;;;;;;;;;38.00;32.00;;;;;21.45;70.68;100477.67;110180;1250;22274;-39
2023/07/13 03:44:13;;;;;;;;;35.00;34.00;;;;;21.47;70.53;100476.86;110185;1250;20014;-39
2023/07/13 03:46:41;;;;;;;;;38.00;37.00;;;;;21.49;70.45;100482.80;110200;1256;20022;-39
2023/07/13 03:49:08;;;;;;;;;35.00;32.00;;;;;21.45;70.50;100483.63;110189;1250;21374;-39
2023/07/13 03:51:36;;;;;;;;;35.00;34.50;;;;;21.42;70.39;100482.92;110209;1265;18672;-39
2023/07/13 03:54:03;;;;;;;;;34.50;32.00;;;;;21.48;69.98;100478.84;110204;1264;18708;-39
2023/07/13 03:56:32;;;;;;;;;36.00;35.67;;;;;21.47;70.11;100484.66;110288;1264;20593;-39
2023/07/13 03:59:00;;;;;;;;;45.00;39.00;;;;;21.48;70.16;100486.77;110207;1248;21216;-39
2023/07/13 04:01:27;;;;;;;;;46.00;41.50;;;;;21.53;70.16;100489.38;110184;1250;20173;-39
2023/07/13 04:03:55;;;;;;;;;42.00;39.00;;;;;21.53;70.46;100487.52;110214;1249;20909;-39
2023/07/13 04:06:23;;;;;;;;;40.00;37.00;;;;;21.57;70.73;100491.68;110168;1256;20359;-39
2023/07/13 04:08:51;;;;;;;;;47.00;40.00;;;;;21.55;70.74;100492.21;110193;1249;20110;-39
2023/07/13 04:11:18;;;;;;;;;46.00;39.00;;;;;21.56;70.88;100495.33;110174;1250;22008;-39
2023/07/13 04:13:46;;;;;;;;;46.00;42.00;;;;;21.56;71.07;100494.31;110211;1265;18538;-39
2023/07/13 04:16:13;;;;;;;;;50.00;44.50;;;;;21.59;71.17;100496.16;110194;1256;21295;-39
2023/07/13 04:18:41;;;;;;;;;46.67;39.00;;;;;21.56;71.23;100499.55;110203;1250;20811;-39
2023/07/13 04:21:08;;;;;;;;;38.00;36.00;;;;;21.53;71.36;100507.18;110201;1250;20012;-39
2023/07/13 04:23:35;;;;;;;;;37.00;34.00;;;;;21.54;71.56;100512.49;110229;1257;21204;-39
2023/07/13 04:26:03;;;;;;;;;54.67;46.67;;;;;21.51;71.69;100517.23;110188;1250;19323;-39
2023/07/13 04:28:30;;;;;;;;;50.00;44.00;;;;;21.44;71.94;100517.42;110179;1264;19682;-39
2023/07/13 04:30:58;;;;;;;;;51.50;45.00;;;;;21.45;72.08;100523.48;110179;1250;20303;-39
2023/07/13 04:33:25;;;;;;;;;51.00;45.00;;;;;21.50;71.90;100530.82;110212;1264;19782;-39
2023/07/13 04:35:55;;;;;;;;;45.00;42.00;;;;;21.47;71.82;100534.45;110187;1264;19173;-39
2023/07/13 04:38:24;;;;;;;;;39.00;34.00;;;;;21.52;71.65;100532.27;110235;1249;20181;-39
2023/07/13 04:40:52;;;;;;;;;53.00;45.00;;;;;21.48;71.97;100535.40;110163;1250;20810;-38
2023/07/13 04:43:19;;;;;;;;;50.00;42.00;;;;;21.50;71.79;100535.35;110212;1264;18765;-39
2023/07/13 04:45:46;;;;;;;;;47.50;42.50;;;;;21.53;71.58;100534.10;110182;1250;20535;-38
2023/07/13 04:48:14;;;;;;;;;43.00;37.00;;;;;21.54;71.57;100530.88;110200;1264;19370;-39
2023/07/13 04:50:43;;;;;;;;;43.00;38.00;;;;;21.53;71.50;100520.25;110228;1264;18571;-38
2023/07/13 04:53:11;;;;;;;;;37.00;35.00;;;;;21.49;71.69;100519.92;110183;1251;20184;-39
2023/07/13 04:55:38;;;;;;;;;50.00;41.00;;;;;21.49;71.54;100523.75;110210;1264;19332;-40
2023/07/13 04:58:06;;;;;;;;;41.33;37.67;;;;;21.52;71.18;100526.09;110199;1265;22335;-39
2023/07/13 05:00:33;;;;;;;;;39.33;37.33;;;;;21.46;71.19;100531.88;110180;1265;18686;-39
2023/07/13 05:03:01;;;;;;;;;38.50;35.00;;;;;21.35;71.46;100539.98;110222;1250;20699;-40
2023/07/13 05:05:28;;;;;;;;;34.50;32.50;;;;;21.45;71.64;100543.83;110191;1264;19913;-39
2023/07/13 05:07:56;;;;;;;;;38.00;35.00;;;;;21.39;71.97;100544.27;110185;1257;20394;-39
2023/07/13 05:10:23;;;;;;;;;35.00;29.50;;;;;21.42;71.96;100548.98;110213;1250;22050;-40
2023/07/13 05:12:51;;;;;;;;;28.00;28.00;;;;;21.50;71.85;100551.06;110207;1250;19115;-39
2023/07/13 05:15:21;;;;;;;;;38.00;36.50;;;;;21.59;71.44;100553.73;110196;1256;20109;-39
2023/07/13 05:17:48;;;;;;;;;31.00;28.00;;;;;21.66;71.14;100558.40;110193;1264;19484;-39
2023/07/13 05:20:15;;;;;;;;;36.50;34.50;;;;;21.64;71.17;100557.95;110208;1264;18552;-40
2023/07/13 05:22:43;;;;;;;;;40.50;40.00;;;;;21.60;70.96;100565.48;110211;1264;20222;-38
2023/07/13 05:25:10;;;;;;;;;45.00;39.00;;;;;21.53;71.13;100572.68;110278;1249;20785;-36
2023/07/13 05:27:38;;;;;;;;;39.00;35.00;;;;;21.48;71.51;100581.59;110240;1250;19787;-38
2023/07/13 05:30:05;;;;;;;;;31.00;30.50;;;;;21.62;71.50;100585.41;110194;1250;22268;-39
2023/07/13 05:32:33;;;;;;;;;26.50;26.50;;;;;21.68;71.44;100585.75;110219;1256;19552;-39
2023/07/13 05:35:00;;;;;;;;;32.00;28.00;;;;;21.70;71.71;100587.88;110203;1256;22568;-39
2023/07/13 05:37:27;;;;;;;;;31.00;25.00;;;;;21.77;71.41;100587.73;110263;1250;20047;-39
2023/07/13 05:39:55;;;;;;;;;34.00;29.50;;;;;21.84;71.18;100589.43;110211;1264;20721;-39
2023/07/13 05:42:22;;;;;;;;;30.50;27.50;;;;;21.75;71.19;100595.67;110178;1264;18673;-39
2023/07/13 05:44:50;;;;;;;;;28.33;26.00;;;;;21.60;71.66;100599.05;110221;1250;20240;-39
2023/07/13 05:47:17;;;;;;;;;38.00;34.00;;;;;21.69;71.62;100604.33;110097;1256;21036;-39
2023/07/13 05:49:45;;;;;;;;;34.50;32.50;;;;;21.79;71.52;100610.13;110181;1264;19978;-39
2023/07/13 05:52:12;;;;;;;;;42.00;35.00;;;;;21.65;71.88;100611.42;110219;1250;18714;-39
2023/07/13 05:54:39;;;;;;;;;31.00;28.00;;;;;21.58;72.43;100610.37;110212;1264;21009;-39
2023/07/13 05:57:07;;;;;;;;;26.33;22.33;;;;;21.53;72.34;100609.70;110237;1264;20675;-39
2023/07/13 05:59:34;;;;;;;;;26.00;22.50;;;;;21.50;71.90;100604.47;110268;1264;18651;-39
2023/07/13 06:02:02;;;;;;;;;24.50;23.00;;;;;21.53;71.72;100601.96;110271;1250;20809;-39
2023/07/13 06:04:29;;;;;;;;;21.00;20.00;;;;;21.57;71.46;100608.45;110196;1250;20022;-39
2023/07/13 06:06:57;;;;;;;;;25.00;24.00;;;;;21.73;71.08;100607.39;110192;1264;20116;-39
2023/07/13 06:09:24;;;;;;;;;20.00;20.00;;;;;21.71;70.87;100614.16;110195;1264;23400;-39
2023/07/13 06:11:52;;;;;;;;;22.50;21.00;;;;;21.78;70.88;100620.56;110205;1249;19929;-38
2023/07/13 06:14:19;;;;;;;;;21.00;19.00;;;;;21.85;70.67;100622.64;110220;1264;18829;-39
2023/07/13 06:16:46;;;;;;;;;21.00;17.00;;;;;21.91;70.16;100617.45;110201;1264;19314;-39
2023/07/13 06:19:14;;;;;;;;;21.00;18.00;;;;;21.87;70.09;100613.27;110240;1256;19903;-39
2023/07/13 06:21:41;;;;;;;;;14.50;14.50;;;;;21.99;69.75;100605.94;110213;1250;20150;-39
2023/07/13 06:24:09;;;;;;;;;19.00;18.00;;;;;22.09;69.40;100608.52;110238;1257;21650;-39
2023/07/13 06:26:36;;;;;;;;;22.00;21.00;;;;;21.88;69.82;100602.73;110168;1250;19976;-39
2023/07/13 06:29:03;;;;;;;;;25.00;21.00;;;;;21.94;69.53;100601.71;110127;1264;21935;-42
2023/07/13 06:31:31;;;;;;;;;20.00;18.50;;;;;21.93;69.50;100602.19;110148;1250;20924;-41
2023/07/13 06:33:58;;;;;;;;;18.50;16.50;;;;;21.96;69.59;100596.36;110225;1250;22744;-41
2023/07/13 06:36:26;;;;;;;;;14.00;14.00;;;;;22.05;69.51;100599.60;110207;1264;18789;-41
2023/07/13 06:38:53;;;;;;;;;15.00;15.00;;;;;22.21;69.03;100606.36;110093;1250;20790;-41
2023/07/13 06:41:22;;;;;;;;;15.50;15.50;;;;;22.39;68.54;100597.77;110185;1250;19986;-40
2023/07/13 06:43:49;;;;;;;;;32.00;29.00;;;;;22.42;68.03;100589.52;110227;1264;22768;-40
2023/07/13 06:46:16;;;;;;;;;42.00;38.00;;;;;22.42;67.89;100586.05;110276;1265;19441;-39
2023/07/13 06:48:44;;;;;;;;;44.00;36.00;;;;;22.45;67.75;100582.33;110245;1265;18574;-41
2023/07/13 06:51:11;;;;;;;;;39.50;38.50;;;;;22.55;67.45;100579.72;110231;1264;18718;-41
2023/07/13 06:53:39;;;;;;;;;25.50;25.00;;;;;22.60;67.34;100579.77;110249;1250;20785;-42
2023/07/13 06:56:06;;;;;;;;;28.00;26.00;;;;;22.53;67.10;100579.99;110235;1250;20072;-41
2023/07/13 06:58:33;;;;;;;;;20.00;18.00;;;;;22.62;67.12;100581.91;110227;1264;22160;-42
2023/07/13 07:01:01;;;;;;;;;22.00;22.00;;;;;22.70;66.75;100582.10;110213;1264;19405;-42
2023/07/13 07:03:28;;;;;;;;;22.00;21.00;;;;;22.60;66.73;100588.80;110054;1249;205294;-41
2023/07/13 07:05:56;;;;;;;;;19.00;18.00;;;;;22.48;67.14;100593.80;110158;1264;22238;-42
2023/07/13 07:08:23;;;;;;;;;16.00;15.50;;;;;22.53;67.38;100603.17;110228;1257;20666;-41
2023/07/13 07:10:53;;;;;;;;;18.00;16.00;;;;;22.58;67.20;100609.25;110194;1249;20097;-40
2023/07/13 07:13:21;;;;;;;;;18.00;18.00;;;;;22.53;67.25;100614.38;110278;1250;20160;-38
2023/07/13 07:15:48;;;;;;;;;15.00;13.00;;;;;22.51;67.29;100617.62;110300;1249;22049;-39
2023/07/13 07:18:16;;;;;;;;;18.00;17.00;;;;;22.60;67.15;100617.56;110204;1250;21687;-38
2023/07/13 07:20:43;;;;;;;;;18.00;16.00;;;;;22.60;67.04;100620.13;110242;1264;18721;-38
2023/07/13 07:23:11;;;;;;;;;18.00;16.00;;;;;22.63;66.97;100621.13;110225;1257;20704;-38
2023/07/13 07:25:41;;;;;;;;;15.00;15.00;;;;;22.66;66.78;100620.80;110196;1265;19881;-38
2023/07/13 07:28:09;;;;;;;;;16.00;15.00;;;;;22.60;66.59;100622.10;110245;1256;20515;-38
2023/07/13 07:30:37;;;;;;;;;16.00;12.50;;;;;22.62;66.39;100619.27;110221;1264;19583;-38
2023/07/13 07:33:05;;;;;;;;;13.00;13.00;;;;;22.77;66.24;100620.45;110205;1251;20054;-39
2023/07/13 07:35:32;;;;;;;;;12.00;12.00;;;;;22.82;65.64;100618.77;110181;1250;20118;-39
2023/07/13 07:38:00;;;;;;;;;12.00;11.00;;;;;22.84;65.21;100621.75;110259;1250;20683;-39
2023/07/13 07:40:27;;;;;;;;;12.00;12.00;;;;;22.84;65.02;100619.10;110238;1264;18661;-39
2023/07/13 07:42:55;;;;;;;;;15.00;12.67;;;;;22.86;65.35;100615.67;110240;1264;20094;-39
2023/07/13 07:45:22;;;;;;;;;11.00;11.00;;;;;22.81;65.28;100616.16;110168;1260;20954;-39
2023/07/13 07:47:49;;;;;;;;;14.00;14.00;;;;;22.83;65.27;100618.88;110230;1264;18621;-39
2023/07/13 07:50:17;;;;;;;;;16.00;13.00;;;;;22.79;65.22;100617.87;110165;1264;18707;-38
2023/07/13 07:52:44;;;;;;;;;9.00;9.00;;;;;22.79;65.52;100618.75;110174;1264;23517;-39
2023/07/13 07:55:12;;;;;;;;;15.50;12.00;;;;;22.87;65.22;100621.64;110167;1250;20001;-39
2023/07/13 07:57:39;;;;;;;;;11.50;11.50;;;;;22.91;64.67;100625.68;110182;1265;18708;-39
2023/07/13 08:00:07;;;;;;;;;16.00;15.00;;;;;22.90;64.45;100628.81;110243;1249;20918;-39
2023/07/13 08:02:34;;;;;;;;;15.00;14.00;;;;;22.85;64.71;100633.27;110204;1256;20114;-39
2023/07/13 08:05:02;;;;;;;;;16.00;15.50;;;;;22.81;65.41;100637.52;110226;1250;20971;-39
2023/07/13 08:07:29;;;;;;;;;12.00;12.00;;;;;22.80;65.62;100631.62;110212;1251;19519;-38
2023/07/13 08:09:57;;;;;;;;;12.00;12.00;;;;;22.80;65.68;100637.02;110174;1249;20400;-39
2023/07/13 08:12:24;;;;;;;;;16.00;13.00;;;;;22.80;65.67;100642.51;110232;1265;19253;-39
2023/07/13 08:14:53;;;;;;;;;15.00;12.50;;;;;22.75;65.45;100640.02;110212;1250;20914;-39
2023/07/13 08:17:21;;;;;;;;;14.00;13.00;;;;;22.75;65.02;100638.20;110227;1249;22269;-39
2023/07/13 08:19:48;;;;;;;;;11.00;11.00;;;;;22.77;65.02;100634.48;110225;1265;18745;-39
2023/07/13 08:22:16;;;;;;;;;12.00;11.00;;;;;22.83;64.80;100638.71;110129;1256;20693;-39
2023/07/13 08:24:43;;;;;;;;;12.50;11.50;;;;;22.83;64.58;100639.39;110238;1256;19999;-38
2023/07/13 08:27:11;;;;;;;;;13.33;12.67;;;;;22.85;64.06;100637.73;110214;1264;18659;-38
2023/07/13 08:29:38;;;;;;;;;13.00;12.00;;;;;22.87;63.56;100642.77;110145;1264;20699;-39
2023/07/13 08:32:06;;;;;;;;;16.00;16.00;;;;;22.81;63.80;100650.42;110258;1265;18599;-39
2023/07/13 08:34:33;;;;;;;;;17.00;17.00;;;;;22.81;64.54;100651.73;110278;1250;20169;-38
2023/07/13 08:37:00;;;;;;;;;16.00;15.00;;;;;22.82;65.29;100649.01;110229;1250;21996;-39
2023/07/13 08:39:28;;;;;;;;;18.00;16.00;;;;;22.83;66.07;100645.95;110193;1257;19693;-38
2023/07/13 08:41:56;;;;;;;;;16.00;16.00;;;;;22.81;66.07;100646.55;110205;1264;20659;-38
2023/07/13 08:44:23;;;;;;;;;19.33;19.00;;;;;22.83;66.19;100643.95;110214;1250;20697;-37
2023/07/13 08:46:50;;;;;;;;;16.00;15.00;;;;;22.84;66.68;100646.05;110162;1264;18595;-37
2023/07/13 08:49:18;;;;;;;;;19.00;18.00;;;;;22.85;66.77;100646.13;110221;1250;20202;-38
2023/07/13 08:51:45;;;;;;;;;20.00;19.00;;;;;22.86;67.03;100649.26;110265;1249;20713;-38
2023/07/13 08:54:13;;;;;;;;;16.00;16.00;;;;;22.88;67.08;100645.73;110207;1256;19500;-38
2023/07/13 08:56:40;;;;;;;;;18.50;18.00;;;;;22.93;66.83;100644.20;110183;1260;18639;-38
2023/07/13 08:59:08;;;;;;;;;15.00;15.00;;;;;22.98;67.10;100650.45;110202;1249;20903;-39
2023/07/13 09:01:36;;;;;;;;;15.67;15.00;;;;;23.04;67.41;100653.15;110260;1251;20036;-39
2023/07/13 09:04:03;;;;;;;;;16.00;16.00;;;;;23.04;67.36;100649.83;110230;1264;20083;-38
2023/07/13 09:06:30;;;;;;;;;16.00;15.50;;;;;23.02;66.61;100653.85;110226;1250;20793;-37
2023/07/13 09:08:58;;;;;;;;;13.00;13.00;;;;;23.02;66.27;100648.00;110216;1250;20040;-38
2023/07/13 09:11:25;;;;;;;;;16.00;16.00;;;;;23.05;66.02;100643.88;110219;1265;20125;-38
2023/07/13 09:13:53;;;;;;;;;19.00;19.00;;;;;23.11;65.71;100648.27;110251;1265;24007;-38
2023/07/13 09:16:20;;;;;;;;;15.50;15.00;;;;;23.13;65.52;100641.80;110175;1250;19978;-38
2023/07/13 09:18:48;;;;;;;;;20.00;17.00;;;;;23.24;65.37;100641.49;110167;1250;20081;-38
2023/07/13 09:21:15;;;;;;;;;27.00;23.00;;;;;23.42;64.86;100639.20;110253;1250;20817;-38
2023/07/13 09:23:43;;;;;;;;;27.00;26.00;;;;;23.56;64.71;100636.64;110201;1250;21164;-36
2023/07/13 09:26:10;;;;;;;;;24.00;23.00;;;;;23.68;64.53;100640.43;110233;1250;20269;-37
2023/07/13 09:28:38;;;;;;;;;17.67;17.00;;;;;23.98;64.39;100637.52;110241;1250;20781;-38
2023/07/13 09:31:05;;;;;;;;;15.00;14.00;;;;;24.06;63.87;100638.80;110242;1265;22643;-38
2023/07/13 09:33:34;;;;;;;;;14.00;14.00;;;;;24.03;63.12;100636.21;110184;1256;20264;-38
2023/07/13 09:36:02;;;;;;;;;16.00;15.00;;;;;23.93;62.51;100634.92;110229;1249;19333;-37
2023/07/13 09:38:30;;;;;;;;;12.00;12.00;;;;;23.95;61.46;100636.33;110267;1264;18544;-37
2023/07/13 09:40:58;;;;;;;;;13.00;10.00;;;;;23.79;60.34;100634.66;110202;1250;20159;-40
2023/07/13 09:43:26;;;;;;;;;13.00;13.00;;;;;23.82;59.86;100634.00;110197;1250;20763;-38
2023/07/13 09:45:53;;;;;;;;;10.00;10.00;;;;;23.96;59.57;100629.67;110201;1250;20035;-38
2023/07/13 09:48:21;;;;;;;;;10.00;10.00;;;;;23.91;58.40;100630.62;110230;1250;18722;-38
2023/07/13 09:50:48;;;;;;;;;13.00;10.00;;;;;23.96;58.41;100627.02;110124;1260;20387;-38
2023/07/13 09:53:16;;;;;;;;;12.00;10.00;;;;;23.99;58.14;100628.31;110215;1250;19991;-38
2023/07/13 09:55:43;;;;;;;;;11.00;10.00;;;;;23.75;57.80;100619.48;110219;1265;20218;-38
2023/07/13 09:58:11;;;;;;;;;15.00;15.00;;;;;23.68;57.98;100616.44;110239;1250;22191;-38
2023/07/13 10:00:39;;;;;;;;;12.00;10.00;;;;;23.67;57.94;100618.42;110256;1265;18586;-38
2023/07/13 10:03:07;;;;;;;;;12.67;12.00;;;;;23.70;57.90;100617.33;110201;1264;18695;-38
2023/07/13 10:05:35;;;;;;;;;13.00;12.50;;;;;23.75;56.60;100620.20;110169;1264;20808;-38
2023/07/13 10:08:03;;;;;;;;;10.00;9.00;;;;;23.61;56.23;100617.33;110230;1264;21650;-38
2023/07/13 10:10:31;;;;;;;;;10.00;9.00;;;;;23.58;56.04;100609.55;110191;1264;18705;-38
2023/07/13 10:12:59;;;;;;;;;9.00;9.00;;;;;23.60;56.03;100613.52;110234;1264;20782;-38
2023/07/13 10:15:27;;;;;;;;;8.67;8.67;;;;;23.84;56.16;100616.71;110230;1250;18608;-38
2023/07/13 10:17:54;;;;;;;;;8.50;8.50;;;;;23.95;55.99;100622.52;110182;1264;18604;-38
2023/07/13 10:20:22;;;;;;;;;10.00;9.00;;;;;23.95;55.84;100623.19;110206;1250;22694;-38
2023/07/13 10:22:49;;;;;;;;;9.00;9.00;;;;;23.93;55.95;100627.48;110252;1256;18544;-38
2023/07/13 10:25:18;;;;;;;;;10.00;9.00;;;;;23.93;55.89;100627.90;110256;1264;22210;-37
2023/07/13 10:27:45;;;;;;;;;8.00;8.00;;;;;23.95;55.98;100625.80;110133;1264;20722;-38
2023/07/13 10:30:13;;;;;;;;;14.00;12.00;;;;;23.97;56.19;100627.50;110147;1264;20184;-38
2023/07/13 10:32:40;;;;;;;;;;;;;;;23.90;55.97;100625.39;110208;1250;22674;-38
2023/07/13 10:35:08;;;;;;;;;18.00;18.00;;;;;23.83;55.96;100632.04;110200;1254;20826;-38
2023/07/13 10:37:36;;;;;;;;;14.00;12.00;;;;;23.82;56.25;100634.17;110220;1249;19679;-38
2023/07/13 10:40:04;;;;;;;;;12.00;12.00;;;;;23.84;56.34;100634.02;110248;1248;21582;-38
2023/07/13 10:42:32;;;;;;;;;12.00;12.00;;;;;23.86;56.82;100644.15;110198;1249;21902;-38
2023/07/13 10:44:59;;;;;;;;;12.00;12.00;;;;;23.83;57.37;100648.59;110162;1250;20337;-38
2023/07/13 10:47:27;;;;;;;;;12.00;9.00;;;;;23.65;57.52;100656.52;110181;1250;20169;-39
2023/07/13 10:49:54;;;;;;;;;10.00;10.00;;;;;23.47;57.14;100654.41;110159;1264;19345;-38
2023/07/13 10:52:21;;;;;;;;;9.50;9.50;;;;;23.44;57.02;100650.73;110247;1264;18744;-39
2023/07/13 10:54:49;;;;;;;;;13.00;12.00;;;;;23.25;56.76;100646.10;110237;1264;18664;-39
2023/07/13 10:57:17;;;;;;;;;11.00;11.00;;;;;23.19;57.45;100652.69;110149;1264;20904;-38
2023/07/13 10:59:46;;;;;;;;;9.00;9.00;;;;;23.18;57.76;100665.58;110173;1249;20548;-38
2023/07/13 11:02:13;;;;;;;;;10.00;9.00;;;;;23.15;58.07;100674.14;110257;1250;21501;-38